sensor_id;sensor_type;location;lat;lon;timestamp;temperature;humidity
20102;DHT22;10210;52.284;9.892;2023-07-13T00:00:38;25.00;99.90
20102;DHT22;10210;52.284;9.892;2023-07-13T00:03:04;24.90;99.90
20102;DHT22;10210;52.284;9.892;2023-07-13T00:05:30;24.90;99.90
20102;DHT22;10210;52.284;9.892;2023-07-13T00:07:57;24.90;99.90
20102;DHT22;10210;52.284;9.892;2023-07-13T00:10:23;24.80;99.90
20102;DHT22;10210;52.284;9.892;2023-07-13T00:12:48;24.80;99.90
20102;DHT22;10210;52.284;9.892;2023-07-13T00:15:18;24.80;99.90
20102;DHT22;10210;52.284;9.892;2023-07-13T00:17:55;24.70;99.90
20102;DHT22;10210;52.284;9.892;2023-07-13T00:20:22;24.70;99.90
20102;DHT22;10210;52.284;9.892;2023-07-13T00:22:51;24.70;99.90
20102;DHT22;10210;52.284;9.892;2023-07-13T00:25:20;24.70;99.90
20102;DHT22;10210;52.284;9.892;2023-07-13T00:27:47;24.60;99.90
20102;DHT22;10210;52.284;9.892;2023-07-13T00:30:14;24.50;99.90
20102;DHT22;10210;52.284;9.892;2023-07-13T00:32:40;24.60;99.90
20102;DHT22;10210;52.284;9.892;2023-07-13T00:35:06;24.50;99.90
20102;DHT22;10210;52.284;9.892;2023-07-13T00:37:32;24.50;99.90
20102;DHT22;10210;52.284;9.892;2023-07-13T00:40:01;24.50;99.90
20102;DHT22;10210;52.284;9.892;2023-07-13T00:42:31;24.50;99.90
20102;DHT22;10210;52.284;9.892;2023-07-13T00:47:38;24.40;99.90
20102;DHT22;10210;52.284;9.892;2023-07-13T00:50:09;24.40;99.90
20102;DHT22;10210;52.284;9.892;2023-07-13T00:52:39;24.40;99.90
20102;DHT22;10210;52.284;9.892;2023-07-13T00:55:09;24.40;99.90
20102;DHT22;10210;52.284;9.892;2023-07-13T00:57:36;24.30;99.90
20102;DHT22;10210;52.284;9.892;2023-07-13T01:00:04;24.30;99.90
20102;DHT22;10210;52.284;9.892;2023-07-13T01:02:37;24.30;99.90
20102;DHT22;10210;52.284;9.892;2023-07-13T01:05:19;24.30;99.90
20102;DHT22;10210;52.284;9.892;2023-07-13T01:07:48;24.30;99.90
20102;DHT22;10210;52.284;9.892;2023-07-13T01:10:16;24.30;99.90
20102;DHT22;10210;52.284;9.892;2023-07-13T01:12:42;24.20;99.90
20102;DHT22;10210;52.284;9.892;2023-07-13T01:15:49;24.20;99.90
20102;DHT22;10210;52.284;9.892;2023-07-13T01:18:23;24.10;99.90
20102;DHT22;10210;52.284;9.892;2023-07-13T01:21:03;24.10;99.90
20102;DHT22;10210;52.284;9.892;2023-07-13T01:23:31;24.10;99.90
20102;DHT22;10210;52.284;9.892;2023-07-13T01:25:58;24.00;99.90
20102;DHT22;10210;52.284;9.892;2023-07-13T01:28:26;24.00;99.90
20102;DHT22;10210;52.284;9.892;2023-07-13T01:30:55;23.90;99.90
20102;DHT22;10210;52.284;9.892;2023-07-13T01:33:22;23.90;99.90
20102;DHT22;10210;52.284;9.892;2023-07-13T01:35:49;23.80;99.90
20102;DHT22;10210;52.284;9.892;2023-07-13T01:38:17;23.70;99.90
20102;DHT22;10210;52.284;9.892;2023-07-13T01:40:44;23.70;99.90
20102;DHT22;10210;52.284;9.892;2023-07-13T01:43:10;23.60;99.90
20102;DHT22;10210;52.284;9.892;2023-07-13T01:45:36;23.50;99.90
20102;DHT22;10210;52.284;9.892;2023-07-13T01:48:02;23.50;99.90
20102;DHT22;10210;52.284;9.892;2023-07-13T01:50:28;23.40;99.90
20102;DHT22;10210;52.284;9.892;2023-07-13T01:52:54;23.30;99.90
20102;DHT22;10210;52.284;9.892;2023-07-13T01:55:20;23.20;99.90
20102;DHT22;10210;52.284;9.892;2023-07-13T01:57:47;23.20;99.90
20102;DHT22;10210;52.284;9.892;2023-07-13T02:00:13;23.10;99.90
20102;DHT22;10210;52.284;9.892;2023-07-13T02:02:40;23.00;99.90
20102;DHT22;10210;52.284;9.892;2023-07-13T02:05:06;23.00;99.90
20102;DHT22;10210;52.284;9.892;2023-07-13T02:07:32;22.90;99.90
20102;DHT22;10210;52.284;9.892;2023-07-13T02:09:58;22.90;99.90
20102;DHT22;10210;52.284;9.892;2023-07-13T02:12:24;22.80;99.90
20102;DHT22;10210;52.284;9.892;2023-07-13T02:14:49;22.80;99.90
20102;DHT22;10210;52.284;9.892;2023-07-13T02:17:15;22.80;99.90
20102;DHT22;10210;52.284;9.892;2023-07-13T02:19:41;22.70;99.90
20102;DHT22;10210;52.284;9.892;2023-07-13T02:22:06;22.70;99.90
20102;DHT22;10210;52.284;9.892;2023-07-13T02:24:32;22.60;99.90
20102;DHT22;10210;52.284;9.892;2023-07-13T02:26:58;22.60;99.90
20102;DHT22;10210;52.284;9.892;2023-07-13T02:29:23;22.60;99.90
20102;DHT22;10210;52.284;9.892;2023-07-13T02:31:49;22.50;99.90
20102;DHT22;10210;52.284;9.892;2023-07-13T02:34:14;22.50;99.90
20102;DHT22;10210;52.284;9.892;2023-07-13T02:36:40;22.50;99.90
20102;DHT22;10210;52.284;9.892;2023-07-13T02:39:06;22.50;99.90
20102;DHT22;10210;52.284;9.892;2023-07-13T02:41:32;22.40;99.90
20102;DHT22;10210;52.284;9.892;2023-07-13T02:43:58;22.40;99.90
20102;DHT22;10210;52.284;9.892;2023-07-13T02:46:33;22.40;99.90
20102;DHT22;10210;52.284;9.892;2023-07-13T02:49:00;22.30;99.90
20102;DHT22;10210;52.284;9.892;2023-07-13T02:51:27;22.30;99.90
20102;DHT22;10210;52.284;9.892;2023-07-13T02:53:52;22.30;99.90
20102;DHT22;10210;52.284;9.892;2023-07-13T02:56:27;22.30;99.90
20102;DHT22;10210;52.284;9.892;2023-07-13T02:58:53;22.30;99.90
20102;DHT22;10210;52.284;9.892;2023-07-13T03:01:20;22.20;99.90
20102;DHT22;10210;52.284;9.892;2023-07-13T03:03:50;22.20;99.90
20102;DHT22;10210;52.284;9.892;2023-07-13T03:06:17;22.20;99.90
20102;DHT22;10210;52.284;9.892;2023-07-13T03:08:44;22.20;99.90
20102;DHT22;10210;52.284;9.892;2023-07-13T03:11:13;22.20;99.90
20102;DHT22;10210;52.284;9.892;2023-07-13T03:13:40;22.20;99.90
20102;DHT22;10210;52.284;9.892;2023-07-13T03:16:08;22.20;99.90
20102;DHT22;10210;52.284;9.892;2023-07-13T03:18:35;22.10;99.90
20102;DHT22;10210;52.284;9.892;2023-07-13T03:21:02;22.10;99.90
20102;DHT22;10210;52.284;9.892;2023-07-13T03:23:29;22.10;99.90
20102;DHT22;10210;52.284;9.892;2023-07-13T03:26:08;22.10;99.90
20102;DHT22;10210;52.284;9.892;2023-07-13T03:28:36;22.10;99.90
20102;DHT22;10210;52.284;9.892;2023-07-13T03:31:11;22.10;99.90
20102;DHT22;10210;52.284;9.892;2023-07-13T03:33:39;22.00;99.90
20102;DHT22;10210;52.284;9.892;2023-07-13T03:36:06;22.00;99.90
20102;DHT22;10210;52.284;9.892;2023-07-13T03:38:33;22.00;99.90
20102;DHT22;10210;52.284;9.892;2023-07-13T03:40:59;21.90;99.90
20102;DHT22;10210;52.284;9.892;2023-07-13T03:43:25;21.90;99.90
20102;DHT22;10210;52.284;9.892;2023-07-13T03:45:51;21.80;99.90
20102;DHT22;10210;52.284;9.892;2023-07-13T03:48:16;21.90;99.90
20102;DHT22;10210;52.284;9.892;2023-07-13T03:50:42;21.80;99.90
20102;DHT22;10210;52.284;9.892;2023-07-13T03:53:08;21.80;99.90
20102;DHT22;10210;52.284;9.892;2023-07-13T03:55:34;21.80;99.90
20102;DHT22;10210;52.284;9.892;2023-07-13T03:58:47;21.80;99.90
20102;DHT22;10210;52.284;9.892;2023-07-13T04:00:53;21.80;99.90
20102;DHT22;10210;52.284;9.892;2023-07-13T04:03:19;21.90;99.90
20102;DHT22;10210;52.284;9.892;2023-07-13T04:05:45;21.80;99.90
20102;DHT22;10210;52.284;9.892;2023-07-13T04:08:11;21.90;99.90
20102;DHT22;10210;52.284;9.892;2023-07-13T04:10:37;21.90;99.90
20102;DHT22;10210;52.284;9.892;2023-07-13T04:13:04;21.90;99.90
20102;DHT22;10210;52.284;9.892;2023-07-13T04:15:31;21.90;99.90
20102;DHT22;10210;52.284;9.892;2023-07-13T04:17:57;21.90;99.90
20102;DHT22;10210;52.284;9.892;2023-07-13T04:20:25;22.00;99.90
20102;DHT22;10210;52.284;9.892;2023-07-13T04:22:52;22.00;99.90
20102;DHT22;10210;52.284;9.892;2023-07-13T04:25:21;22.00;99.90
20102;DHT22;10210;52.284;9.892;2023-07-13T04:27:47;22.00;99.90
20102;DHT22;10210;52.284;9.892;2023-07-13T04:30:12;22.00;99.90
20102;DHT22;10210;52.284;9.892;2023-07-13T04:32:38;22.00;99.90
20102;DHT22;10210;52.284;9.892;2023-07-13T04:35:04;22.00;99.90
20102;DHT22;10210;52.284;9.892;2023-07-13T04:37:30;22.10;99.90
20102;DHT22;10210;52.284;9.892;2023-07-13T04:39:56;22.10;99.90
20102;DHT22;10210;52.284;9.892;2023-07-13T04:42:22;22.10;99.90
20102;DHT22;10210;52.284;9.892;2023-07-13T04:44:49;22.10;99.90
20102;DHT22;10210;52.284;9.892;2023-07-13T04:47:15;22.10;99.90
20102;DHT22;10210;52.284;9.892;2023-07-13T04:49:41;22.10;99.90
20102;DHT22;10210;52.284;9.892;2023-07-13T04:52:07;22.10;99.90
20102;DHT22;10210;52.284;9.892;2023-07-13T04:54:33;22.10;99.90
20102;DHT22;10210;52.284;9.892;2023-07-13T04:57:00;22.10;99.90
20102;DHT22;10210;52.284;9.892;2023-07-13T04:59:26;22.10;99.90
20102;DHT22;10210;52.284;9.892;2023-07-13T05:01:53;22.00;99.90
20102;DHT22;10210;52.284;9.892;2023-07-13T05:04:19;22.00;99.90
20102;DHT22;10210;52.284;9.892;2023-07-13T05:06:44;22.00;99.90
20102;DHT22;10210;52.284;9.892;2023-07-13T05:09:10;22.00;99.90
20102;DHT22;10210;52.284;9.892;2023-07-13T05:11:37;22.00;99.90
20102;DHT22;10210;52.284;9.892;2023-07-13T05:14:03;22.00;99.90
20102;DHT22;10210;52.284;9.892;2023-07-13T05:16:29;22.10;99.90
20102;DHT22;10210;52.284;9.892;2023-07-13T05:18:55;22.10;99.90
20102;DHT22;10210;52.284;9.892;2023-07-13T05:21:20;22.10;99.90
20102;DHT22;10210;52.284;9.892;2023-07-13T05:23:47;22.10;99.90
20102;DHT22;10210;52.284;9.892;2023-07-13T05:26:13;22.10;99.90
20102;DHT22;10210;52.284;9.892;2023-07-13T05:28:39;22.10;99.90
20102;DHT22;10210;52.284;9.892;2023-07-13T05:31:07;22.10;99.90
20102;DHT22;10210;52.284;9.892;2023-07-13T05:33:34;22.10;99.90
20102;DHT22;10210;52.284;9.892;2023-07-13T05:35:59;22.10;99.90
20102;DHT22;10210;52.284;9.892;2023-07-13T05:38:26;22.10;99.90
20102;DHT22;10210;52.284;9.892;2023-07-13T05:40:54;22.20;99.90
20102;DHT22;10210;52.284;9.892;2023-07-13T05:43:21;22.20;99.90
20102;DHT22;10210;52.284;9.892;2023-07-13T05:45:47;22.20;99.90
20102;DHT22;10210;52.284;9.892;2023-07-13T05:48:14;22.30;99.90
20102;DHT22;10210;52.284;9.892;2023-07-13T05:50:40;22.30;99.90
20102;DHT22;10210;52.284;9.892;2023-07-13T05:53:06;22.30;99.90
20102;DHT22;10210;52.284;9.892;2023-07-13T05:55:32;22.40;99.90
20102;DHT22;10210;52.284;9.892;2023-07-13T05:57:59;22.40;99.90
20102;DHT22;10210;52.284;9.892;2023-07-13T06:00:26;22.40;99.90
20102;DHT22;10210;52.284;9.892;2023-07-13T06:02:52;22.40;99.90
20102;DHT22;10210;52.284;9.892;2023-07-13T06:05:18;22.50;99.90
20102;DHT22;10210;52.284;9.892;2023-07-13T06:07:44;22.50;99.90
20102;DHT22;10210;52.284;9.892;2023-07-13T06:10:10;22.50;99.90
20102;DHT22;10210;52.284;9.892;2023-07-13T06:12:35;22.50;99.90
20102;DHT22;10210;52.284;9.892;2023-07-13T06:15:01;22.60;99.90
20102;DHT22;10210;52.284;9.892;2023-07-13T06:17:28;22.60;99.90
20102;DHT22;10210;52.284;9.892;2023-07-13T06:19:53;22.60;99.90
20102;DHT22;10210;52.284;9.892;2023-07-13T06:22:19;22.60;99.90
20102;DHT22;10210;52.284;9.892;2023-07-13T06:24:45;22.60;99.90
20102;DHT22;10210;52.284;9.892;2023-07-13T06:27:10;22.60;99.90
20102;DHT22;10210;52.284;9.892;2023-07-13T06:29:36;22.60;99.90
20102;DHT22;10210;52.284;9.892;2023-07-13T06:32:01;22.60;99.90
20102;DHT22;10210;52.284;9.892;2023-07-13T06:34:27;22.70;99.90
20102;DHT22;10210;52.284;9.892;2023-07-13T06:36:53;22.60;99.90
20102;DHT22;10210;52.284;9.892;2023-07-13T06:39:18;22.60;99.90
20102;DHT22;10210;52.284;9.892;2023-07-13T06:41:44;22.70;99.90
20102;DHT22;10210;52.284;9.892;2023-07-13T06:44:10;22.60;99.90
20102;DHT22;10210;52.284;9.892;2023-07-13T06:46:35;22.60;99.90
20102;DHT22;10210;52.284;9.892;2023-07-13T06:49:01;22.70;99.90
20102;DHT22;10210;52.284;9.892;2023-07-13T06:51:27;22.70;99.90
20102;DHT22;10210;52.284;9.892;2023-07-13T06:53:52;22.70;99.90
20102;DHT22;10210;52.284;9.892;2023-07-13T06:56:19;22.70;99.90
20102;DHT22;10210;52.284;9.892;2023-07-13T06:58:45;22.70;99.90
20102;DHT22;10210;52.284;9.892;2023-07-13T07:01:11;22.70;99.90
20102;DHT22;10210;52.284;9.892;2023-07-13T07:03:36;22.80;99.90
20102;DHT22;10210;52.284;9.892;2023-07-13T07:06:15;22.80;99.90
20102;DHT22;10210;52.284;9.892;2023-07-13T07:08:43;22.80;99.90
20102;DHT22;10210;52.284;9.892;2023-07-13T07:11:16;22.90;99.90
20102;DHT22;10210;52.284;9.892;2023-07-13T07:13:43;23.00;99.90
20102;DHT22;10210;52.284;9.892;2023-07-13T07:16:09;23.10;99.90
20102;DHT22;10210;52.284;9.892;2023-07-13T07:18:35;23.20;99.90
20102;DHT22;10210;52.284;9.892;2023-07-13T07:21:00;23.30;99.90
20102;DHT22;10210;52.284;9.892;2023-07-13T07:23:27;23.40;99.90
20102;DHT22;10210;52.284;9.892;2023-07-13T07:25:53;23.40;99.90
20102;DHT22;10210;52.284;9.892;2023-07-13T07:28:19;23.60;99.90
20102;DHT22;10210;52.284;9.892;2023-07-13T07:30:46;23.70;99.90
20102;DHT22;10210;52.284;9.892;2023-07-13T07:33:12;23.80;99.90
20102;DHT22;10210;52.284;9.892;2023-07-13T07:35:38;24.00;99.90
20102;DHT22;10210;52.284;9.892;2023-07-13T07:38:04;24.10;99.90
20102;DHT22;10210;52.284;9.892;2023-07-13T07:40:30;24.30;99.90
20102;DHT22;10210;52.284;9.892;2023-07-13T07:42:57;24.40;99.90
20102;DHT22;10210;52.284;9.892;2023-07-13T07:45:23;24.50;99.90
20102;DHT22;10210;52.284;9.892;2023-07-13T07:47:49;24.60;99.90
20102;DHT22;10210;52.284;9.892;2023-07-13T07:50:15;24.70;99.90
20102;DHT22;10210;52.284;9.892;2023-07-13T07:52:40;24.80;99.90
20102;DHT22;10210;52.284;9.892;2023-07-13T07:55:07;24.90;99.90
20102;DHT22;10210;52.284;9.892;2023-07-13T07:57:33;24.90;99.90
20102;DHT22;10210;52.284;9.892;2023-07-13T07:59:59;24.90;99.90
20102;DHT22;10210;52.284;9.892;2023-07-13T08:02:25;24.90;99.90
20102;DHT22;10210;52.284;9.892;2023-07-13T08:04:51;25.10;99.90
20102;DHT22;10210;52.284;9.892;2023-07-13T08:07:18;25.20;99.90
20102;DHT22;10210;52.284;9.892;2023-07-13T08:09:43;25.30;99.90
20102;DHT22;10210;52.284;9.892;2023-07-13T08:12:09;25.40;99.90
20102;DHT22;10210;52.284;9.892;2023-07-13T08:14:35;25.60;99.90
20102;DHT22;10210;52.284;9.892;2023-07-13T08:17:01;25.70;99.90
20102;DHT22;10210;52.284;9.892;2023-07-13T08:19:27;25.80;99.90
20102;DHT22;10210;52.284;9.892;2023-07-13T08:21:52;25.90;99.90
20102;DHT22;10210;52.284;9.892;2023-07-13T08:24:18;26.10;99.90
20102;DHT22;10210;52.284;9.892;2023-07-13T08:26:47;26.20;99.90
20102;DHT22;10210;52.284;9.892;2023-07-13T08:29:13;26.30;99.90
20102;DHT22;10210;52.284;9.892;2023-07-13T08:31:39;26.40;99.90
20102;DHT22;10210;52.284;9.892;2023-07-13T08:34:04;26.50;99.90
20102;DHT22;10210;52.284;9.892;2023-07-13T08:36:30;26.50;99.90
20102;DHT22;10210;52.284;9.892;2023-07-13T08:38:55;26.50;99.90
20102;DHT22;10210;52.284;9.892;2023-07-13T08:41:21;26.50;99.90
20102;DHT22;10210;52.284;9.892;2023-07-13T08:43:53;26.40;99.90
20102;DHT22;10210;52.284;9.892;2023-07-13T08:46:28;26.50;99.90
20102;DHT22;10210;52.284;9.892;2023-07-13T08:49:05;26.50;99.90
20102;DHT22;10210;52.284;9.892;2023-07-13T08:51:53;26.40;99.90
20102;DHT22;10210;52.284;9.892;2023-07-13T08:54:32;26.40;99.90
20102;DHT22;10210;52.284;9.892;2023-07-13T08:57:31;26.40;99.90
20102;DHT22;10210;52.284;9.892;2023-07-13T08:59:58;26.40;99.90
20102;DHT22;10210;52.284;9.892;2023-07-13T09:02:45;26.50;99.90
20102;DHT22;10210;52.284;9.892;2023-07-13T09:05:38;26.50;99.90
20102;DHT22;10210;52.284;9.892;2023-07-13T09:10:45;26.40;99.90
20102;DHT22;10210;52.284;9.892;2023-07-13T09:13:29;26.30;99.90
20102;DHT22;10210;52.284;9.892;2023-07-13T09:16:08;26.20;99.90
20102;DHT22;10210;52.284;9.892;2023-07-13T09:18:39;26.10;99.90
20102;DHT22;10210;52.284;9.892;2023-07-13T09:21:24;26.10;99.90
20102;DHT22;10210;52.284;9.892;2023-07-13T09:24:01;26.10;99.90
20102;DHT22;10210;52.284;9.892;2023-07-13T09:26:47;26.10;99.90
20102;DHT22;10210;52.284;9.892;2023-07-13T09:29:20;26.20;99.90
20102;DHT22;10210;52.284;9.892;2023-07-13T09:31:54;26.30;99.90
20102;DHT22;10210;52.284;9.892;2023-07-13T09:34:22;26.30;99.90
20102;DHT22;10210;52.284;9.892;2023-07-13T09:36:48;26.50;99.90
20102;DHT22;10210;52.284;9.892;2023-07-13T09:39:37;26.60;99.90
20102;DHT22;10210;52.284;9.892;2023-07-13T09:42:17;26.70;99.90
20102;DHT22;10210;52.284;9.892;2023-07-13T09:44:58;26.80;99.90
20102;DHT22;10210;52.284;9.892;2023-07-13T09:47:29;26.80;99.90
20102;DHT22;10210;52.284;9.892;2023-07-13T09:50:03;26.80;99.90
20102;DHT22;10210;52.284;9.892;2023-07-13T09:52:45;26.70;99.90
20102;DHT22;10210;52.284;9.892;2023-07-13T09:55:24;26.70;99.90
20102;DHT22;10210;52.284;9.892;2023-07-13T09:57:52;26.80;99.90
20102;DHT22;10210;52.284;9.892;2023-07-13T10:00:27;27.00;99.90
20102;DHT22;10210;52.284;9.892;2023-07-13T10:03:09;27.10;99.90
20102;DHT22;10210;52.284;9.892;2023-07-13T10:05:45;27.10;99.80
20102;DHT22;10210;52.284;9.892;2023-07-13T10:11:10;27.10;99.60
20102;DHT22;10210;52.284;9.892;2023-07-13T10:13:44;27.00;99.90
20102;DHT22;10210;52.284;9.892;2023-07-13T10:16:14;27.10;99.90
20102;DHT22;10210;52.284;9.892;2023-07-13T10:18:57;27.20;99.90
20102;DHT22;10210;52.284;9.892;2023-07-13T10:21:31;27.30;99.90
20102;DHT22;10210;52.284;9.892;2023-07-13T10:24:12;27.40;99.90
20102;DHT22;10210;52.284;9.892;2023-07-13T10:26:52;27.50;99.90
20102;DHT22;10210;52.284;9.892;2023-07-13T10:29:23;27.50;99.60
20102;DHT22;10210;52.284;9.892;2023-07-13T10:31:52;27.70;99.80
20102;DHT22;10210;52.284;9.892;2023-07-13T10:34:18;27.70;99.60
20102;DHT22;10210;52.284;9.892;2023-07-13T10:36:45;27.70;99.00
20102;DHT22;10210;52.284;9.892;2023-07-13T10:39:19;27.70;98.80
20102;DHT22;10210;52.284;9.892;2023-07-13T10:41:55;27.80;98.20
20102;DHT22;10210;52.284;9.892;2023-07-13T10:44:34;27.80;97.90
20102;DHT22;10210;52.284;9.892;2023-07-13T10:47:04;27.80;98.20
20102;DHT22;10210;52.284;9.892;2023-07-13T10:49:39;27.70;98.10
20102;DHT22;10210;52.284;9.892;2023-07-13T10:52:46;27.80;98.30
20102;DHT22;10210;52.284;9.892;2023-07-13T10:55:38;27.80;98.20
20102;DHT22;10210;52.284;9.892;2023-07-13T10:58:20;27.90;97.90
20102;DHT22;10210;52.284;9.892;2023-07-13T11:03:46;27.90;97.40
20102;DHT22;10210;52.284;9.892;2023-07-13T11:06:30;28.00;97.50
20102;DHT22;10210;52.284;9.892;2023-07-13T11:11:45;28.00;96.90
20102;DHT22;10210;52.284;9.892;2023-07-13T11:16:54;28.00;97.10
20102;DHT22;10210;52.284;9.892;2023-07-13T11:24:59;28.10;96.80
20102;DHT22;10210;52.284;9.892;2023-07-13T11:30:22;28.10;96.40
20102;DHT22;10210;52.284;9.892;2023-07-13T11:35:45;28.10;96.40
20102;DHT22;10210;52.284;9.892;2023-07-13T11:38:41;28.10;96.10
20102;DHT22;10210;52.284;9.892;2023-07-13T11:41:18;28.10;96.00
20102;DHT22;10210;52.284;9.892;2023-07-13T11:43:53;28.00;96.60
20102;DHT22;10210;52.284;9.892;2023-07-13T11:46:22;28.10;96.50
20102;DHT22;10210;52.284;9.892;2023-07-13T11:48:51;28.20;96.20
20102;DHT22;10210;52.284;9.892;2023-07-13T11:51:22;28.20;96.10
20102;DHT22;10210;52.284;9.892;2023-07-13T11:53:53;28.20;96.30
20102;DHT22;10210;52.284;9.892;2023-07-13T11:56:21;28.30;96.20
20102;DHT22;10210;52.284;9.892;2023-07-13T11:58:52;28.30;96.00
20102;DHT22;10210;52.284;9.892;2023-07-13T12:01:28;28.30;95.50
20102;DHT22;10210;52.284;9.892;2023-07-13T12:04:00;28.30;95.80
20102;DHT22;10210;52.284;9.892;2023-07-13T12:06:33;28.20;95.50
20102;DHT22;10210;52.284;9.892;2023-07-13T12:09:11;28.20;95.90
20102;DHT22;10210;52.284;9.892;2023-07-13T12:11:40;28.20;95.30
20102;DHT22;10210;52.284;9.892;2023-07-13T12:14:18;28.20;95.40
20102;DHT22;10210;52.284;9.892;2023-07-13T12:16:46;28.20;95.30
20102;DHT22;10210;52.284;9.892;2023-07-13T12:19:28;28.20;95.50
20102;DHT22;10210;52.284;9.892;2023-07-13T12:21:57;28.20;95.50
20102;DHT22;10210;52.284;9.892;2023-07-13T12:24:23;28.30;95.30
20102;DHT22;10210;52.284;9.892;2023-07-13T12:27:02;28.30;95.30
20102;DHT22;10210;52.284;9.892;2023-07-13T12:29:31;28.40;95.70
20102;DHT22;10210;52.284;9.892;2023-07-13T12:31:58;28.50;95.30
20102;DHT22;10210;52.284;9.892;2023-07-13T12:34:26;28.50;95.20
20102;DHT22;10210;52.284;9.892;2023-07-13T12:39:45;28.60;94.00
20102;DHT22;10210;52.284;9.892;2023-07-13T12:42:27;28.50;93.90
20102;DHT22;10210;52.284;9.892;2023-07-13T12:44:57;28.50;93.70
20102;DHT22;10210;52.284;9.892;2023-07-13T12:47:27;28.40;94.00
20102;DHT22;10210;52.284;9.892;2023-07-13T12:49:58;28.30;93.90
20102;DHT22;10210;52.284;9.892;2023-07-13T12:52:34;28.30;93.90
20102;DHT22;10210;52.284;9.892;2023-07-13T12:55:16;28.20;94.10
20102;DHT22;10210;52.284;9.892;2023-07-13T12:57:56;28.30;94.30
20102;DHT22;10210;52.284;9.892;2023-07-13T13:00:36;28.40;94.10
20102;DHT22;10210;52.284;9.892;2023-07-13T13:03:22;28.40;94.30
20102;DHT22;10210;52.284;9.892;2023-07-13T13:06:00;28.50;94.20
20102;DHT22;10210;52.284;9.892;2023-07-13T13:08:29;28.60;94.60
20102;DHT22;10210;52.284;9.892;2023-07-13T13:10:58;28.60;94.60
20102;DHT22;10210;52.284;9.892;2023-07-13T13:13:24;28.60;94.30
20102;DHT22;10210;52.284;9.892;2023-07-13T13:15:50;28.70;94.40
20102;DHT22;10210;52.284;9.892;2023-07-13T13:18:19;28.70;94.60
20102;DHT22;10210;52.284;9.892;2023-07-13T13:20:47;28.80;94.60
20102;DHT22;10210;52.284;9.892;2023-07-13T13:23:16;28.80;94.60
20102;DHT22;10210;52.284;9.892;2023-07-13T13:25:49;28.80;94.20
20102;DHT22;10210;52.284;9.892;2023-07-13T13:28:20;28.80;94.20
20102;DHT22;10210;52.284;9.892;2023-07-13T13:30:48;28.80;94.10
20102;DHT22;10210;52.284;9.892;2023-07-13T13:33:18;28.70;94.30
20102;DHT22;10210;52.284;9.892;2023-07-13T13:35:45;28.60;94.20
20102;DHT22;10210;52.284;9.892;2023-07-13T13:38:13;28.40;94.50
20102;DHT22;10210;52.284;9.892;2023-07-13T13:40:41;28.20;95.90
20102;DHT22;10210;52.284;9.892;2023-07-13T13:43:15;28.00;96.20
20102;DHT22;10210;52.284;9.892;2023-07-13T13:45:43;27.80;96.50
20102;DHT22;10210;52.284;9.892;2023-07-13T13:48:21;27.70;96.60
20102;DHT22;10210;52.284;9.892;2023-07-13T13:50:56;27.60;96.90
20102;DHT22;10210;52.284;9.892;2023-07-13T13:53:22;27.60;97.00
20102;DHT22;10210;52.284;9.892;2023-07-13T13:55:51;27.50;96.60
20102;DHT22;10210;52.284;9.892;2023-07-13T13:58:19;27.50;96.30
20102;DHT22;10210;52.284;9.892;2023-07-13T14:00:45;27.50;96.20
20102;DHT22;10210;52.284;9.892;2023-07-13T14:03:21;27.40;96.20
20102;DHT22;10210;52.284;9.892;2023-07-13T14:05:48;27.40;96.90
20102;DHT22;10210;52.284;9.892;2023-07-13T14:08:17;27.40;96.70
20102;DHT22;10210;52.284;9.892;2023-07-13T14:10:47;27.30;96.80
20102;DHT22;10210;52.284;9.892;2023-07-13T14:13:21;27.20;96.80
20102;DHT22;10210;52.284;9.892;2023-07-13T14:15:52;27.10;97.20
20102;DHT22;10210;52.284;9.892;2023-07-13T14:18:18;27.00;97.00
20102;DHT22;10210;52.284;9.892;2023-07-13T14:20:45;26.90;97.00
20102;DHT22;10210;52.284;9.892;2023-07-13T14:23:13;26.80;97.20
20102;DHT22;10210;52.284;9.892;2023-07-13T14:25:40;26.80;97.50
20102;DHT22;10210;52.284;9.892;2023-07-13T14:28:25;26.70;97.80
20102;DHT22;10210;52.284;9.892;2023-07-13T14:30:53;26.60;99.10
20102;DHT22;10210;52.284;9.892;2023-07-13T14:33:20;26.50;99.10
20102;DHT22;10210;52.284;9.892;2023-07-13T14:35:46;26.40;98.90
20102;DHT22;10210;52.284;9.892;2023-07-13T14:38:15;26.20;99.40
20102;DHT22;10210;52.284;9.892;2023-07-13T14:40:43;26.20;99.90
20102;DHT22;10210;52.284;9.892;2023-07-13T14:43:16;26.10;99.90
20102;DHT22;10210;52.284;9.892;2023-07-13T14:45:48;26.00;99.90
20102;DHT22;10210;52.284;9.892;2023-07-13T14:48:24;26.00;99.90
20102;DHT22;10210;52.284;9.892;2023-07-13T14:50:54;25.90;99.90
20102;DHT22;10210;52.284;9.892;2023-07-13T14:53:22;25.80;99.90
20102;DHT22;10210;52.284;9.892;2023-07-13T14:55:55;25.70;99.90
20102;DHT22;10210;52.284;9.892;2023-07-13T14:58:20;25.60;99.90
20102;DHT22;10210;52.284;9.892;2023-07-13T15:00:46;25.40;99.90
20102;DHT22;10210;52.284;9.892;2023-07-13T15:03:22;25.30;99.90
20102;DHT22;10210;52.284;9.892;2023-07-13T15:05:51;25.10;99.90
20102;DHT22;10210;52.284;9.892;2023-07-13T15:08:18;24.90;99.90
20102;DHT22;10210;52.284;9.892;2023-07-13T15:10:44;24.70;99.90
20102;DHT22;10210;52.284;9.892;2023-07-13T15:13:17;24.50;99.90
20102;DHT22;10210;52.284;9.892;2023-07-13T15:15:49;24.40;99.90
20102;DHT22;10210;52.284;9.892;2023-07-13T15:18:20;24.30;99.90
20102;DHT22;10210;52.284;9.892;2023-07-13T15:20:48;24.20;99.90
20102;DHT22;10210;52.284;9.892;2023-07-13T15:23:16;24.10;99.90
20102;DHT22;10210;52.284;9.892;2023-07-13T15:25:43;24.00;99.90
20102;DHT22;10210;52.284;9.892;2023-07-13T15:28:11;23.90;99.90
20102;DHT22;10210;52.284;9.892;2023-07-13T15:30:43;23.80;99.90
20102;DHT22;10210;52.284;9.892;2023-07-13T15:33:24;23.70;99.90
20102;DHT22;10210;52.284;9.892;2023-07-13T15:35:52;23.70;99.90
20102;DHT22;10210;52.284;9.892;2023-07-13T15:38:20;23.70;99.90
20102;DHT22;10210;52.284;9.892;2023-07-13T15:40:49;23.60;99.90
20102;DHT22;10210;52.284;9.892;2023-07-13T15:43:17;23.60;99.90
20102;DHT22;10210;52.284;9.892;2023-07-13T15:45:43;23.60;99.90
20102;DHT22;10210;52.284;9.892;2023-07-13T15:50:47;23.50;99.90
20102;DHT22;10210;52.284;9.892;2023-07-13T15:53:34;23.40;99.90
20102;DHT22;10210;52.284;9.892;2023-07-13T15:56:02;23.40;99.90
20102;DHT22;10210;52.284;9.892;2023-07-13T15:58:42;23.40;99.90
20102;DHT22;10210;52.284;9.892;2023-07-13T16:01:10;23.40;99.90
20102;DHT22;10210;52.284;9.892;2023-07-13T16:03:37;23.40;99.90
20102;DHT22;10210;52.284;9.892;2023-07-13T16:06:03;23.40;99.90
20102;DHT22;10210;52.284;9.892;2023-07-13T16:08:36;23.40;99.90
20102;DHT22;10210;52.284;9.892;2023-07-13T16:11:02;23.40;99.90
20102;DHT22;10210;52.284;9.892;2023-07-13T16:13:27;23.40;99.90
20102;DHT22;10210;52.284;9.892;2023-07-13T16:15:53;23.40;99.90
20102;DHT22;10210;52.284;9.892;2023-07-13T16:18:21;23.40;99.90